createdAt,value
2019-04-25T00:02:36.610Z,47.18
2019-04-25T00:05:11.316Z,47.17
2019-04-25T00:07:42.473Z,47.07
2019-04-25T00:10:13.745Z,47.29
2019-04-25T00:12:44.529Z,47.36
2019-04-25T00:15:14.511Z,47.43
2019-04-25T00:17:44.784Z,47.49
2019-04-25T00:20:14.639Z,47.54
2019-04-25T00:22:45.972Z,47.66
2019-04-25T00:25:18.073Z,47.63
2019-04-25T00:27:48.581Z,47.65
2019-04-25T00:30:21.003Z,47.74
2019-04-25T00:32:51.329Z,47.69
2019-04-25T00:35:21.664Z,47.80
2019-04-25T00:37:52.490Z,47.95
2019-04-25T00:40:23.012Z,47.98
2019-04-25T00:42:53.836Z,48.04
2019-04-25T00:45:23.474Z,48.19
2019-04-25T00:47:53.104Z,48.22
2019-04-25T00:50:22.791Z,48.32
2019-04-25T00:52:53.672Z,48.27
2019-04-25T00:55:28.724Z,48.22
2019-04-25T00:57:56.443Z,48.32
2019-04-25T01:00:27.718Z,48.33
2019-04-25T01:02:58.985Z,48.45
2019-04-25T01:05:29.081Z,48.51
2019-04-25T01:07:58.712Z,48.71
2019-04-25T01:10:28.895Z,48.78
2019-04-25T01:12:59.016Z,48.88
2019-04-25T01:15:31.388Z,48.87
2019-04-25T01:18:01.296Z,48.92
2019-04-25T01:20:31.039Z,48.94
2019-04-25T01:23:01.048Z,49.07
2019-04-25T01:25:40.257Z,49.20
2019-04-25T01:28:03.251Z,49.31
2019-04-25T01:30:34.017Z,49.29
2019-04-25T01:33:05.143Z,49.38
2019-04-25T01:35:39.383Z,49.47
2019-04-25T01:38:10.644Z,49.59
2019-04-25T01:40:43.815Z,49.59
2019-04-25T01:43:24.005Z,49.66
2019-04-25T01:45:56.026Z,49.71
2019-04-25T01:48:26.665Z,49.83
2019-04-25T01:50:56.544Z,49.95
2019-04-25T01:53:26.697Z,50.00
2019-04-25T01:56:03.688Z,50.17
2019-04-25T01:58:27.781Z,50.20
2019-04-25T02:00:57.422Z,50.30
2019-04-25T02:03:27.386Z,50.35
2019-04-25T02:05:57.670Z,50.45
2019-04-25T02:08:27.284Z,50.53
2019-04-25T02:10:58.961Z,50.54
2019-04-25T02:13:28.782Z,50.56
2019-04-25T02:16:00.069Z,50.63
2019-04-25T02:18:29.712Z,50.69
2019-04-25T02:21:01.378Z,50.72
2019-04-25T02:23:30.802Z,50.86
2019-04-25T02:26:13.772Z,50.90
2019-04-25T02:28:33.837Z,51.05
2019-04-25T02:31:08.598Z,51.11
2019-04-25T02:33:35.500Z,51.16
2019-04-25T02:36:08.653Z,51.28
2019-04-25T02:38:39.120Z,51.39
2019-04-25T02:41:09.425Z,51.31
2019-04-25T02:43:39.460Z,51.42
2019-04-25T02:46:10.739Z,51.49
2019-04-25T02:48:51.276Z,51.61
2019-04-25T02:51:24.365Z,51.68
2019-04-25T02:53:59.674Z,51.70
2019-04-25T02:56:34.840Z,51.67
2019-04-25T02:59:03.507Z,51.81
2019-04-25T03:01:34.256Z,51.87
2019-04-25T03:04:07.419Z,51.93
2019-04-25T03:06:35.722Z,52.07
2019-04-25T03:09:09.843Z,52.14
2019-04-25T03:11:40.278Z,52.17
2019-04-25T03:14:10.353Z,52.32
2019-04-25T03:16:40.214Z,52.31
2019-04-25T03:19:11.481Z,52.45
2019-04-25T03:21:45.461Z,52.51
2019-04-25T03:24:16.813Z,52.59
2019-04-25T03:26:46.831Z,52.64
2019-04-25T03:29:16.464Z,52.74
2019-04-25T03:31:46.514Z,52.69
2019-04-25T03:34:20.366Z,52.76
2019-04-25T03:36:49.032Z,52.83
2019-04-25T03:39:20.034Z,52.87
2019-04-25T03:41:49.679Z,52.93
2019-04-25T03:44:19.977Z,53.21
2019-04-25T03:46:50.221Z,53.13
2019-04-25T03:49:19.917Z,53.14
2019-04-25T03:51:50.517Z,53.11
2019-04-25T03:54:20.229Z,53.14
2019-04-25T03:56:55.457Z,53.24
2019-04-25T03:59:21.187Z,53.46
2019-04-25T04:01:51.219Z,53.53
2019-04-25T04:04:20.850Z,53.59
2019-04-25T04:06:50.465Z,53.61
2019-04-25T04:09:20.859Z,53.54
2019-04-25T04:11:50.486Z,53.61
2019-04-25T04:14:21.750Z,53.67
2019-04-25T04:17:09.236Z,53.50
2019-04-25T04:19:43.557Z,53.44
2019-04-25T04:22:22.170Z,53.45
2019-04-25T04:24:53.852Z,53.42
2019-04-25T04:27:23.989Z,53.55
2019-04-25T04:29:54.290Z,53.79
2019-04-25T04:32:24.266Z,53.99
2019-04-25T04:34:53.905Z,53.96
2019-04-25T04:37:23.773Z,54.06
2019-04-25T04:39:53.768Z,54.09
2019-04-25T04:42:23.877Z,54.14
2019-04-25T04:44:53.932Z,54.15
2019-04-25T04:47:23.759Z,54.26
2019-04-25T04:49:54.034Z,54.37
2019-04-25T04:52:25.703Z,54.51
2019-04-25T04:55:05.165Z,54.54
2019-04-25T04:57:32.946Z,54.58
2019-04-25T04:59:58.286Z,54.72
2019-04-25T05:02:41.210Z,54.68
2019-04-25T05:05:19.121Z,54.79
2019-04-25T05:07:50.461Z,54.81
2019-04-25T05:10:20.154Z,54.87
2019-04-25T05:12:49.838Z,55.01
2019-04-25T05:15:20.566Z,55.11
2019-04-25T05:17:50.308Z,55.17
2019-04-25T05:20:20.164Z,55.11
2019-04-25T05:22:49.771Z,55.28
2019-04-25T05:25:19.411Z,55.44
2019-04-25T05:27:59.434Z,55.52
2019-04-25T05:30:26.574Z,55.53
2019-04-25T05:32:56.158Z,55.67
2019-04-25T05:35:26.564Z,55.89
2019-04-25T05:37:56.231Z,55.75
2019-04-25T05:40:25.942Z,55.98
2019-04-25T05:43:03.392Z,56.03
2019-04-25T05:45:35.399Z,56.29
2019-04-25T05:48:06.002Z,56.21
2019-04-25T05:50:35.839Z,56.27
2019-04-25T05:53:05.649Z,56.15
2019-04-25T05:55:37.001Z,56.19
2019-04-25T05:58:06.641Z,56.25
2019-04-25T06:00:36.397Z,56.14
2019-04-25T06:03:06.036Z,55.96
2019-04-25T06:05:36.052Z,56.19
2019-04-25T06:08:05.726Z,56.38
2019-04-25T06:10:45.010Z,55.86
2019-04-25T06:13:15.839Z,56.41
2019-04-25T06:15:47.121Z,56.34
2019-04-25T06:18:19.758Z,55.90
2019-04-25T06:20:49.568Z,55.66
2019-04-25T06:23:24.606Z,55.14
2019-04-25T06:25:55.160Z,55.01
2019-04-25T06:28:26.483Z,55.03
2019-04-25T06:30:56.179Z,55.00
2019-04-25T06:33:26.241Z,55.02
2019-04-25T06:35:56.987Z,54.92
2019-04-25T06:38:27.525Z,54.93
2019-04-25T06:40:57.952Z,55.03
2019-04-25T06:43:28.023Z,54.85
2019-04-25T06:46:04.820Z,55.23
2019-04-25T06:48:38.533Z,55.48
2019-04-25T06:51:08.167Z,55.53
2019-04-25T06:53:37.845Z,54.95
2019-04-25T06:56:07.596Z,54.80
2019-04-25T06:58:37.243Z,55.07
2019-04-25T07:01:06.870Z,55.17
2019-04-25T07:03:36.660Z,55.46
2019-04-25T07:06:06.299Z,54.97
2019-04-25T07:08:35.924Z,54.79
2019-04-25T07:11:05.739Z,55.11
2019-04-25T07:13:38.738Z,54.74
2019-04-25T07:16:07.730Z,54.62
2019-04-25T07:18:37.492Z,54.49
2019-04-25T07:21:07.191Z,54.48
2019-04-25T07:23:36.827Z,54.56
2019-04-25T07:26:08.202Z,54.54
2019-04-25T07:28:41.107Z,54.62
2019-04-25T07:31:25.091Z,54.75
2019-04-25T07:33:58.855Z,54.58
2019-04-25T07:36:30.997Z,54.48
2019-04-25T07:39:08.210Z,54.37
2019-04-25T07:41:31.998Z,54.48
2019-04-25T07:44:01.727Z,54.34
2019-04-25T07:46:32.804Z,54.38
2019-04-25T07:49:03.477Z,54.60
2019-04-25T07:51:34.645Z,54.34
2019-04-25T07:54:05.412Z,54.35
2019-04-25T07:56:36.455Z,54.35
2019-04-25T07:59:07.669Z,54.36
2019-04-25T08:01:38.763Z,54.19
2019-04-25T08:04:08.787Z,54.20
2019-04-25T08:06:38.547Z,54.29
2019-04-25T08:09:11.225Z,54.06
2019-04-25T08:11:41.447Z,53.85
2019-04-25T08:14:21.523Z,54.03
2019-04-25T08:17:08.212Z,54.24
2019-04-25T08:19:37.948Z,54.24
2019-04-25T08:22:07.616Z,53.85
2019-04-25T08:24:39.086Z,54.05
2019-04-25T08:27:08.804Z,54.09
2019-04-25T08:29:39.754Z,54.06
2019-04-25T08:32:09.612Z,54.02
2019-04-25T08:34:39.273Z,54.02
2019-04-25T08:37:18.086Z,53.93
2019-04-25T08:39:46.639Z,53.93
2019-04-25T08:42:16.333Z,53.66
2019-04-25T08:44:46.544Z,53.93
2019-04-25T08:47:16.176Z,53.63
2019-04-25T08:49:53.857Z,53.50
2019-04-25T08:52:24.311Z,53.62
2019-04-25T08:55:11.781Z,53.92
2019-04-25T08:57:51.894Z,53.55
2019-04-25T09:00:36.978Z,53.42
2019-04-25T09:03:17.222Z,53.06
2019-04-25T09:05:48.622Z,52.94
2019-04-25T09:08:18.972Z,52.67
2019-04-25T09:10:48.876Z,52.28
2019-04-25T09:13:18.536Z,52.22
2019-04-25T09:15:48.169Z,52.19
2019-04-25T09:18:18.061Z,52.27
2019-04-25T09:20:47.746Z,52.37
2019-04-25T09:23:17.376Z,52.35
2019-04-25T09:25:47.578Z,52.70
2019-04-25T09:28:17.255Z,52.49
2019-04-25T09:30:46.883Z,52.40
2019-04-25T09:33:16.505Z,52.05
2019-04-25T09:35:46.445Z,51.90
2019-04-25T09:38:16.078Z,51.93
2019-04-25T09:40:46.655Z,51.88
2019-04-25T09:43:16.527Z,51.75
2019-04-25T09:45:47.863Z,51.10
2019-04-25T09:48:25.130Z,51.19
2019-04-25T09:50:56.396Z,51.22
2019-04-25T09:53:27.045Z,50.81
2019-04-25T09:56:14.057Z,50.63
2019-04-25T09:58:51.316Z,50.33
2019-04-25T10:01:23.898Z,50.25
2019-04-25T10:03:54.399Z,50.31
2019-04-25T10:06:24.203Z,49.64
2019-04-25T10:08:54.368Z,49.24
2019-04-25T10:11:24.085Z,48.72
2019-04-25T10:14:04.551Z,49.04
2019-04-25T10:16:35.135Z,48.77
2019-04-25T10:19:06.035Z,48.08
2019-04-25T10:21:35.798Z,47.97
2019-04-25T10:24:05.428Z,47.78
2019-04-25T10:26:35.122Z,47.72
2019-04-25T10:29:05.322Z,47.79
2019-04-25T10:31:34.954Z,47.14
2019-04-25T10:34:04.923Z,46.32
2019-04-25T10:36:34.946Z,45.96
2019-04-25T10:39:10.868Z,45.79
2019-04-25T10:41:40.187Z,45.57
2019-04-25T10:44:10.292Z,45.70
2019-04-25T10:46:40.177Z,45.64
2019-04-25T10:49:10.467Z,45.65
2019-04-25T10:51:40.844Z,45.29
2019-04-25T10:54:10.553Z,45.45
2019-04-25T10:56:40.194Z,45.07
2019-04-25T10:59:09.872Z,44.68
2019-04-25T11:01:40.279Z,44.63
2019-04-25T11:04:13.871Z,44.74
2019-04-25T11:06:45.417Z,44.10
2019-04-25T11:09:19.988Z,43.82
2019-04-25T11:11:50.408Z,43.95
2019-04-25T11:14:20.605Z,44.13
2019-04-25T11:16:50.455Z,44.05
2019-04-25T11:19:20.215Z,43.89
2019-04-25T11:21:49.876Z,44.10
2019-04-25T11:24:19.505Z,43.72
2019-04-25T11:26:51.304Z,43.96
2019-04-25T11:29:20.615Z,43.09
2019-04-25T11:31:50.930Z,42.90
2019-04-25T11:34:20.785Z,43.66
2019-04-25T11:36:50.937Z,42.47
2019-04-25T11:39:31.349Z,42.05
2019-04-25T11:42:01.726Z,42.28
2019-04-25T11:44:31.365Z,41.42
2019-04-25T11:47:01.075Z,41.07
2019-04-25T11:49:30.757Z,40.74
2019-04-25T11:52:05.239Z,40.54
2019-04-25T11:54:34.596Z,40.25
2019-04-25T11:57:04.504Z,40.02
2019-04-25T11:59:34.243Z,40.03
2019-04-25T12:02:05.871Z,39.59
2019-04-25T12:04:35.610Z,39.66
2019-04-25T12:07:07.176Z,39.66
2019-04-25T12:09:36.591Z,38.96
2019-04-25T12:12:06.328Z,38.99
2019-04-25T12:14:35.951Z,38.41
2019-04-25T12:17:06.125Z,37.88
2019-04-25T12:19:38.052Z,37.20
2019-04-25T12:22:07.199Z,37.24
2019-04-25T12:24:36.828Z,36.89
2019-04-25T12:27:06.621Z,37.42
2019-04-25T12:29:38.723Z,37.63
2019-04-25T12:32:08.114Z,38.60
2019-04-25T12:34:37.840Z,38.92
2019-04-25T12:37:07.512Z,39.71
2019-04-25T12:39:37.145Z,40.28
2019-04-25T12:42:19.648Z,40.19
2019-04-25T12:44:56.131Z,39.33
2019-04-25T12:47:34.470Z,38.60
2019-04-25T12:50:07.344Z,37.31
2019-04-25T12:52:40.293Z,36.48
2019-04-25T12:55:13.893Z,35.66
2019-04-25T12:57:47.253Z,35.10
2019-04-25T13:00:24.278Z,34.75
2019-04-25T13:02:54.297Z,35.31
2019-04-25T13:05:25.769Z,35.87
2019-04-25T13:07:58.669Z,35.51
2019-04-25T13:10:28.396Z,34.78
2019-04-25T13:12:58.017Z,35.20
2019-04-25T13:15:29.540Z,35.46
2019-04-25T13:17:59.300Z,35.22
2019-04-25T13:20:28.932Z,34.70
2019-04-25T13:22:58.553Z,33.89
2019-04-25T13:25:28.253Z,32.82
2019-04-25T13:27:59.629Z,32.94
2019-04-25T13:30:47.035Z,33.92
2019-04-25T13:33:18.316Z,33.89
2019-04-25T13:35:49.575Z,34.52
2019-04-25T13:38:19.800Z,35.53
2019-04-25T13:40:49.426Z,36.06
2019-04-25T13:43:19.184Z,36.81
2019-04-25T13:45:48.874Z,37.12
2019-04-25T13:48:20.182Z,37.69
2019-04-25T13:50:49.831Z,38.48
2019-04-25T13:53:19.886Z,38.48
2019-04-25T13:55:50.410Z,37.82
2019-04-25T13:58:20.810Z,37.76
2019-04-25T14:00:50.601Z,38.25
2019-04-25T14:03:20.654Z,37.47
2019-04-25T14:05:51.341Z,36.43
2019-04-25T14:08:24.355Z,36.67
2019-04-25T14:10:54.269Z,36.41
2019-04-25T14:13:25.602Z,36.45
2019-04-25T14:16:13.771Z,36.68
2019-04-25T14:19:03.215Z,36.52
2019-04-25T14:21:33.513Z,36.21
2019-04-25T14:24:03.255Z,36.49
2019-04-25T14:26:32.876Z,36.75
2019-04-25T14:29:04.237Z,37.01
2019-04-25T14:31:45.426Z,37.39
2019-04-25T14:34:05.800Z,37.83
2019-04-25T14:36:38.599Z,37.65
2019-04-25T14:39:08.891Z,37.56
2019-04-25T14:41:38.616Z,37.54
2019-04-25T14:44:08.301Z,37.71
2019-04-25T14:46:38.198Z,37.61
2019-04-25T14:49:08.197Z,37.52
2019-04-25T14:51:37.948Z,37.55
2019-04-25T14:54:09.329Z,37.60
2019-04-25T14:56:45.026Z,37.27
2019-04-25T14:59:14.678Z,37.25
2019-04-25T15:01:45.302Z,37.11
2019-04-25T15:04:15.166Z,37.05
2019-04-25T15:06:44.863Z,37.03
2019-04-25T15:09:14.559Z,37.06
2019-04-25T15:11:44.194Z,37.30
2019-04-25T15:14:13.866Z,37.55
2019-04-25T15:16:43.492Z,37.84
2019-04-25T15:19:13.123Z,38.01
2019-04-25T15:21:42.791Z,38.17
2019-04-25T15:24:12.467Z,38.53
2019-04-25T15:26:42.101Z,38.78
2019-04-25T15:29:11.883Z,38.59
2019-04-25T15:31:41.776Z,38.90
2019-04-25T15:34:11.414Z,38.79
2019-04-25T15:36:51.859Z,38.93
2019-04-25T15:39:38.232Z,38.79
2019-04-25T15:42:26.459Z,38.56
2019-04-25T15:45:16.959Z,38.04
2019-04-25T15:47:46.940Z,37.62
2019-04-25T15:50:16.635Z,37.66
2019-04-25T15:52:46.263Z,37.19
2019-04-25T15:55:16.569Z,36.89
2019-04-25T15:57:46.266Z,36.98
2019-04-25T16:00:20.387Z,36.94
2019-04-25T16:02:50.075Z,37.22
2019-04-25T16:05:20.699Z,37.18
2019-04-25T16:07:50.470Z,36.50
2019-04-25T16:10:20.312Z,36.66
2019-04-25T16:12:51.191Z,36.74
2019-04-25T16:15:20.880Z,37.38
2019-04-25T16:17:50.647Z,37.39
2019-04-25T16:20:20.634Z,37.90
2019-04-25T16:22:50.260Z,37.74
2019-04-25T16:25:20.007Z,37.51
2019-04-25T16:27:49.844Z,38.02
2019-04-25T16:30:21.929Z,38.29
2019-04-25T16:32:52.374Z,38.41
2019-04-25T16:35:22.379Z,38.51
2019-04-25T16:37:52.001Z,38.59
2019-04-25T16:40:22.036Z,38.82
2019-04-25T16:42:51.733Z,39.13
2019-04-25T16:45:21.428Z,39.27
2019-04-25T16:47:51.168Z,39.70
2019-04-25T16:50:22.743Z,39.40
2019-04-25T16:52:52.443Z,39.72
2019-04-25T16:55:23.772Z,40.03
2019-04-25T16:57:53.578Z,40.29
2019-04-25T17:00:24.922Z,40.43
2019-04-25T17:02:54.589Z,40.43
2019-04-25T17:05:25.336Z,40.57
2019-04-25T17:07:54.978Z,40.68
2019-04-25T17:10:25.072Z,40.77
2019-04-25T17:12:54.743Z,41.05
2019-04-25T17:15:43.007Z,41.11
2019-04-25T17:18:19.274Z,41.22
2019-04-25T17:21:05.641Z,41.47
2019-04-25T17:23:37.030Z,41.32
2019-04-25T17:26:07.033Z,41.46
2019-04-25T17:28:39.174Z,41.62
2019-04-25T17:31:25.407Z,41.75
2019-04-25T17:33:56.680Z,41.78
2019-04-25T17:36:44.159Z,41.98
2019-04-25T17:39:33.481Z,42.17
2019-04-25T17:42:03.753Z,42.47
2019-04-25T17:44:34.198Z,42.18
2019-04-25T17:47:06.371Z,42.37
2019-04-25T17:49:35.325Z,42.47
2019-04-25T17:52:05.100Z,42.68
2019-04-25T17:54:34.767Z,42.76
2019-04-25T17:57:04.462Z,42.87
2019-04-25T17:59:34.776Z,43.01
2019-04-25T18:02:04.597Z,43.11
2019-04-25T18:04:34.236Z,43.38
2019-04-25T18:07:04.602Z,43.34
2019-04-25T18:09:34.419Z,43.28
2019-04-25T18:12:05.227Z,43.40
2019-04-25T18:14:35.178Z,43.53
2019-04-25T18:17:04.960Z,43.54
2019-04-25T18:19:45.534Z,43.63
2019-04-25T18:22:19.626Z,43.66
2019-04-25T18:24:54.231Z,43.75
2019-04-25T18:27:35.101Z,43.86
2019-04-25T18:30:07.816Z,43.92
2019-04-25T18:32:39.209Z,44.02
2019-04-25T18:35:13.465Z,43.94
2019-04-25T18:37:56.739Z,44.14
2019-04-25T18:40:44.729Z,44.32
2019-04-25T18:43:27.929Z,44.60
2019-04-25T18:45:59.236Z,44.94
2019-04-25T18:48:29.497Z,45.20
2019-04-25T18:50:59.364Z,45.51
2019-04-25T18:53:47.423Z,45.37
2019-04-25T18:56:37.685Z,45.41
2019-04-25T18:59:25.160Z,45.46
2019-04-25T19:01:56.435Z,45.48
2019-04-25T19:04:27.707Z,45.63
2019-04-25T19:06:58.370Z,46.26
2019-04-25T19:09:28.196Z,46.61
2019-04-25T19:11:57.838Z,46.94
2019-04-25T19:14:27.557Z,46.98
2019-04-25T19:16:57.193Z,47.24
2019-04-25T19:19:26.829Z,47.63
2019-04-25T19:21:56.563Z,47.76
2019-04-25T19:24:26.198Z,47.72
2019-04-25T19:26:55.833Z,47.80
2019-04-25T19:29:25.492Z,47.73
2019-04-25T19:31:55.187Z,47.39
2019-04-25T19:34:24.855Z,47.14
2019-04-25T19:36:54.510Z,47.27
2019-04-25T19:39:25.795Z,47.41
2019-04-25T19:42:12.047Z,48.29
2019-04-25T19:44:42.316Z,48.29
2019-04-25T19:47:12.058Z,48.00
2019-04-25T19:49:42.015Z,48.00
2019-04-25T19:52:12.446Z,47.96
2019-04-25T19:54:43.176Z,47.88
2019-04-25T19:57:13.049Z,47.76
2019-04-25T19:59:43.241Z,47.80
2019-04-25T20:02:15.046Z,47.80
2019-04-25T20:04:49.017Z,48.05
2019-04-25T20:07:20.309Z,47.95
2019-04-25T20:09:54.296Z,48.24
2019-04-25T20:12:25.622Z,48.24
2019-04-25T20:14:55.257Z,48.51
2019-04-25T20:17:24.891Z,48.51
2019-04-25T20:19:54.631Z,48.54
2019-04-25T20:22:25.180Z,48.64
2019-04-25T20:24:54.808Z,48.60
2019-04-25T20:27:24.476Z,48.58
2019-04-25T20:29:54.613Z,48.59
2019-04-25T20:32:24.575Z,48.66
2019-04-25T20:34:55.229Z,48.64
2019-04-25T20:37:25.186Z,48.77
2019-04-25T20:39:54.909Z,48.75
2019-04-25T20:42:24.620Z,48.91
2019-04-25T20:44:54.319Z,49.00
2019-04-25T20:47:25.516Z,49.16
2019-04-25T20:49:55.396Z,49.30
2019-04-25T20:52:25.036Z,49.42
2019-04-25T20:54:54.891Z,49.32
2019-04-25T20:57:25.173Z,49.45
2019-04-25T20:59:54.802Z,49.66
2019-04-25T21:02:24.448Z,49.74
2019-04-25T21:04:54.248Z,49.85
2019-04-25T21:07:23.846Z,49.91
2019-04-25T21:09:53.483Z,49.81
2019-04-25T21:12:23.184Z,49.90
2019-04-25T21:14:54.527Z,49.99
2019-04-25T21:17:25.799Z,50.24
2019-04-25T21:19:59.804Z,50.34
2019-04-25T21:22:29.435Z,50.51
2019-04-25T21:24:59.150Z,50.72
2019-04-25T21:27:28.855Z,51.20
2019-04-25T21:29:58.467Z,51.49
2019-04-25T21:32:28.108Z,51.73
2019-04-25T21:34:59.014Z,51.73
2019-04-25T21:37:28.883Z,52.04
2019-04-25T21:40:00.926Z,52.35
2019-04-25T21:42:39.183Z,52.68
2019-04-25T21:45:09.200Z,52.76
2019-04-25T21:47:38.839Z,53.08
2019-04-25T21:50:09.026Z,53.22
2019-04-25T21:52:38.737Z,53.16
2019-04-25T21:55:08.912Z,53.30
2019-04-25T21:57:38.970Z,53.22
2019-04-25T22:00:11.423Z,53.16
2019-04-25T22:02:41.479Z,53.56
2019-04-25T22:05:11.865Z,53.63
2019-04-25T22:07:41.845Z,53.89
2019-04-25T22:10:11.971Z,54.22
2019-04-25T22:12:41.664Z,54.20
2019-04-25T22:15:13.310Z,54.09
2019-04-25T22:17:42.923Z,54.08
2019-04-25T22:20:12.677Z,54.14
2019-04-25T22:22:42.736Z,54.29
2019-04-25T22:25:12.447Z,54.55
2019-04-25T22:27:42.634Z,54.75
2019-04-25T22:30:13.916Z,54.85
2019-04-25T22:32:45.387Z,55.01
2019-04-25T22:35:22.864Z,55.05
2019-04-25T22:37:52.569Z,55.11
2019-04-25T22:40:22.205Z,55.18
2019-04-25T22:42:51.905Z,55.38
2019-04-25T22:45:21.548Z,55.57
2019-04-25T22:47:51.461Z,56.01
2019-04-25T22:50:21.479Z,56.10
2019-04-25T22:52:51.109Z,56.46
2019-04-25T22:55:21.015Z,56.87
2019-04-25T22:57:50.693Z,57.03
2019-04-25T23:00:24.773Z,56.76
2019-04-25T23:02:59.089Z,56.45
2019-04-25T23:05:30.363Z,56.21
2019-04-25T23:08:00.283Z,56.16
2019-04-25T23:10:30.141Z,56.11
2019-04-25T23:13:00.061Z,55.98
2019-04-25T23:15:29.689Z,56.03
2019-04-25T23:17:59.764Z,56.23
2019-04-25T23:20:29.396Z,56.28
2019-04-25T23:22:59.297Z,56.28
2019-04-25T23:25:30.616Z,56.37
2019-04-25T23:28:14.009Z,56.38
2019-04-25T23:30:57.909Z,57.20
2019-04-25T23:33:27.712Z,57.31
2019-04-25T23:35:57.631Z,57.33
2019-04-25T23:38:27.327Z,57.50
2019-04-25T23:40:57.126Z,57.52
2019-04-25T23:43:27.032Z,57.80
2019-04-25T23:45:56.873Z,57.60
2019-04-25T23:48:26.795Z,57.67
2019-04-25T23:50:56.792Z,58.12
2019-04-25T23:53:26.477Z,58.15
2019-04-25T23:55:56.172Z,58.03
2019-04-25T23:58:26.277Z,57.91
